sensor_id;sensor_type;location;lat;lon;timestamp;P1;durP1;ratioP1;P2;durP2;ratioP2
4363;SDS011;15337;48.202;12.770;2022-08-04T00:01:26;4.05;;;3.85;;
4363;SDS011;15337;48.202;12.770;2022-08-04T00:03:59;4.15;;;3.80;;
4363;SDS011;15337;48.202;12.770;2022-08-04T00:06:33;4.10;;;3.90;;
4363;SDS011;15337;48.202;12.770;2022-08-04T00:09:12;3.72;;;3.45;;
4363;SDS011;15337;48.202;12.770;2022-08-04T00:11:48;3.90;;;3.60;;
4363;SDS011;15337;48.202;12.770;2022-08-04T00:14:17;4.72;;;4.38;;
4363;SDS011;15337;48.202;12.770;2022-08-04T00:16:47;4.15;;;3.78;;
4363;SDS011;15337;48.202;12.770;2022-08-04T00:19:20;3.70;;;3.45;;
4363;SDS011;15337;48.202;12.770;2022-08-04T00:21:55;5.20;;;4.80;;
4363;SDS011;15337;48.202;12.770;2022-08-04T00:24:25;4.75;;;4.40;;
4363;SDS011;15337;48.202;12.770;2022-08-04T00:26:56;4.50;;;4.13;;
4363;SDS011;15337;48.202;12.770;2022-08-04T00:29:25;4.50;;;4.30;;
4363;SDS011;15337;48.202;12.770;2022-08-04T00:31:53;4.97;;;4.68;;
4363;SDS011;15337;48.202;12.770;2022-08-04T00:34:21;5.80;;;4.13;;
4363;SDS011;15337;48.202;12.770;2022-08-04T00:36:50;4.72;;;4.20;;
4363;SDS011;15337;48.202;12.770;2022-08-04T00:39:19;4.85;;;4.55;;
4363;SDS011;15337;48.202;12.770;2022-08-04T00:41:50;4.47;;;4.07;;
4363;SDS011;15337;48.202;12.770;2022-08-04T00:44:33;5.13;;;4.40;;
4363;SDS011;15337;48.202;12.770;2022-08-04T00:47:17;4.15;;;3.85;;
4363;SDS011;15337;48.202;12.770;2022-08-04T00:50:06;4.00;;;3.65;;
4363;SDS011;15337;48.202;12.770;2022-08-04T00:52:38;3.92;;;3.72;;
4363;SDS011;15337;48.202;12.770;2022-08-04T00:58:22;4.85;;;4.53;;
4363;SDS011;15337;48.202;12.770;2022-08-04T01:01:15;5.25;;;4.95;;
4363;SDS011;15337;48.202;12.770;2022-08-04T01:03:56;5.68;;;3.75;;
4363;SDS011;15337;48.202;12.770;2022-08-04T01:06:33;4.78;;;4.38;;
4363;SDS011;15337;48.202;12.770;2022-08-04T01:09:10;4.43;;;4.22;;
4363;SDS011;15337;48.202;12.770;2022-08-04T01:12:07;4.90;;;4.70;;
4363;SDS011;15337;48.202;12.770;2022-08-04T01:14:48;4.78;;;4.38;;
4363;SDS011;15337;48.202;12.770;2022-08-04T01:17:27;5.07;;;4.28;;
4363;SDS011;15337;48.202;12.770;2022-08-04T01:20:06;4.68;;;4.47;;
4363;SDS011;15337;48.202;12.770;2022-08-04T01:22:45;6.15;;;5.43;;
4363;SDS011;15337;48.202;12.770;2022-08-04T01:28:54;6.07;;;5.70;;
4363;SDS011;15337;48.202;12.770;2022-08-04T01:31:34;4.72;;;4.53;;
4363;SDS011;15337;48.202;12.770;2022-08-04T01:34:12;5.18;;;4.78;;
4363;SDS011;15337;48.202;12.770;2022-08-04T01:36:43;4.68;;;4.47;;
4363;SDS011;15337;48.202;12.770;2022-08-04T01:39:12;6.68;;;4.50;;
4363;SDS011;15337;48.202;12.770;2022-08-04T01:42:03;5.32;;;4.95;;
4363;SDS011;15337;48.202;12.770;2022-08-04T01:44:32;4.28;;;4.07;;
4363;SDS011;15337;48.202;12.770;2022-08-04T01:47:02;6.43;;;5.22;;
4363;SDS011;15337;48.202;12.770;2022-08-04T01:49:30;5.32;;;4.88;;
4363;SDS011;15337;48.202;12.770;2022-08-04T01:51:57;7.70;;;5.20;;
4363;SDS011;15337;48.202;12.770;2022-08-04T01:54:25;5.32;;;5.03;;
4363;SDS011;15337;48.202;12.770;2022-08-04T01:56:53;5.82;;;5.40;;
4363;SDS011;15337;48.202;12.770;2022-08-04T01:59:21;4.97;;;4.50;;
4363;SDS011;15337;48.202;12.770;2022-08-04T02:01:50;7.28;;;5.55;;
4363;SDS011;15337;48.202;12.770;2022-08-04T02:04:18;5.50;;;5.00;;
4363;SDS011;15337;48.202;12.770;2022-08-04T02:06:48;5.07;;;4.78;;
4363;SDS011;15337;48.202;12.770;2022-08-04T02:09:21;4.65;;;4.45;;
4363;SDS011;15337;48.202;12.770;2022-08-04T02:11:56;5.25;;;4.82;;
4363;SDS011;15337;48.202;12.770;2022-08-04T02:14:28;5.07;;;4.78;;
4363;SDS011;15337;48.202;12.770;2022-08-04T02:17:12;5.68;;;5.03;;
4363;SDS011;15337;48.202;12.770;2022-08-04T02:19:54;6.85;;;4.40;;
4363;SDS011;15337;48.202;12.770;2022-08-04T02:22:34;5.53;;;5.18;;
4363;SDS011;15337;48.202;12.770;2022-08-04T02:25:07;6.30;;;5.63;;
4363;SDS011;15337;48.202;12.770;2022-08-04T02:27:39;5.22;;;4.82;;
4363;SDS011;15337;48.202;12.770;2022-08-04T02:30:21;5.28;;;4.57;;
4363;SDS011;15337;48.202;12.770;2022-08-04T02:32:55;5.90;;;4.80;;
4363;SDS011;15337;48.202;12.770;2022-08-04T02:35:27;5.50;;;5.28;;
4363;SDS011;15337;48.202;12.770;2022-08-04T02:38:03;4.80;;;4.60;;
4363;SDS011;15337;48.202;12.770;2022-08-04T02:40:36;4.68;;;4.38;;
4363;SDS011;15337;48.202;12.770;2022-08-04T02:43:05;6.30;;;4.80;;
4363;SDS011;15337;48.202;12.770;2022-08-04T02:45:35;4.97;;;4.68;;
4363;SDS011;15337;48.202;12.770;2022-08-04T02:48:04;5.07;;;4.78;;
4363;SDS011;15337;48.202;12.770;2022-08-04T02:50:33;5.50;;;5.20;;
4363;SDS011;15337;48.202;12.770;2022-08-04T02:53:02;5.00;;;4.80;;
4363;SDS011;15337;48.202;12.770;2022-08-04T02:55:31;5.63;;;5.22;;
4363;SDS011;15337;48.202;12.770;2022-08-04T02:57:58;4.95;;;4.75;;
4363;SDS011;15337;48.202;12.770;2022-08-04T03:00:28;6.70;;;6.20;;
4363;SDS011;15337;48.202;12.770;2022-08-04T03:02:58;6.72;;;5.57;;
4363;SDS011;15337;48.202;12.770;2022-08-04T03:05:36;6.45;;;5.95;;
4363;SDS011;15337;48.202;12.770;2022-08-04T03:11:34;5.85;;;5.35;;
4363;SDS011;15337;48.202;12.770;2022-08-04T03:14:21;6.50;;;6.00;;
4363;SDS011;15337;48.202;12.770;2022-08-04T03:17:20;6.38;;;5.72;;
4363;SDS011;15337;48.202;12.770;2022-08-04T03:20:17;5.60;;;5.22;;
4363;SDS011;15337;48.202;12.770;2022-08-04T03:38:57;6.17;;;5.67;;
4363;SDS011;15337;48.202;12.770;2022-08-04T03:41:47;5.17;;;4.90;;
4363;SDS011;15337;48.202;12.770;2022-08-04T03:47:40;5.73;;;5.40;;
4363;SDS011;15337;48.202;12.770;2022-08-04T03:50:25;5.17;;;4.87;;
4363;SDS011;15337;48.202;12.770;2022-08-04T03:53:23;6.70;;;6.00;;
4363;SDS011;15337;48.202;12.770;2022-08-04T03:59:02;6.20;;;5.70;;
4363;SDS011;15337;48.202;12.770;2022-08-04T04:01:58;9.50;;;5.80;;
4363;SDS011;15337;48.202;12.770;2022-08-04T04:04:51;6.17;;;4.93;;
4363;SDS011;15337;48.202;12.770;2022-08-04T04:07:53;6.73;;;6.23;;
4363;SDS011;15337;48.202;12.770;2022-08-04T04:10:45;6.03;;;5.70;;
4363;SDS011;15337;48.202;12.770;2022-08-04T04:13:48;6.00;;;5.50;;
4363;SDS011;15337;48.202;12.770;2022-08-04T04:16:46;5.90;;;5.50;;
4363;SDS011;15337;48.202;12.770;2022-08-04T04:19:33;5.73;;;5.43;;
4363;SDS011;15337;48.202;12.770;2022-08-04T04:22:21;6.83;;;6.27;;
4363;SDS011;15337;48.202;12.770;2022-08-04T04:24:58;6.80;;;6.20;;
4363;SDS011;15337;48.202;12.770;2022-08-04T04:27:42;6.07;;;5.70;;
4363;SDS011;15337;48.202;12.770;2022-08-04T04:30:28;6.10;;;5.80;;
4363;SDS011;15337;48.202;12.770;2022-08-04T04:33:12;6.50;;;6.10;;
4363;SDS011;15337;48.202;12.770;2022-08-04T04:35:53;9.90;;;6.10;;
4363;SDS011;15337;48.202;12.770;2022-08-04T04:38:29;6.27;;;5.67;;
4363;SDS011;15337;48.202;12.770;2022-08-04T04:41:14;6.40;;;5.87;;
4363;SDS011;15337;48.202;12.770;2022-08-04T04:46:49;6.23;;;5.63;;
4363;SDS011;15337;48.202;12.770;2022-08-04T04:49:28;6.40;;;6.00;;
4363;SDS011;15337;48.202;12.770;2022-08-04T04:52:02;6.63;;;6.07;;
4363;SDS011;15337;48.202;12.770;2022-08-04T04:54:36;6.90;;;6.10;;
4363;SDS011;15337;48.202;12.770;2022-08-04T04:57:10;11.20;;;6.27;;
4363;SDS011;15337;48.202;12.770;2022-08-04T04:59:43;8.93;;;6.30;;
4363;SDS011;15337;48.202;12.770;2022-08-04T05:02:23;7.30;;;6.10;;
4363;SDS011;15337;48.202;12.770;2022-08-04T05:05:29;6.00;;;5.60;;
4363;SDS011;15337;48.202;12.770;2022-08-04T05:11:17;7.25;;;5.72;;
4363;SDS011;15337;48.202;12.770;2022-08-04T05:14:01;6.50;;;6.10;;
4363;SDS011;15337;48.202;12.770;2022-08-04T05:16:36;8.32;;;6.72;;
4363;SDS011;15337;48.202;12.770;2022-08-04T05:19:12;7.82;;;6.50;;
4363;SDS011;15337;48.202;12.770;2022-08-04T05:21:47;9.70;;;7.68;;
4363;SDS011;15337;48.202;12.770;2022-08-04T05:24:17;11.05;;;8.00;;
4363;SDS011;15337;48.202;12.770;2022-08-04T05:26:47;7.80;;;6.90;;
4363;SDS011;15337;48.202;12.770;2022-08-04T05:29:22;8.00;;;7.45;;
4363;SDS011;15337;48.202;12.770;2022-08-04T05:31:54;9.20;;;8.60;;
4363;SDS011;15337;48.202;12.770;2022-08-04T05:34:25;9.15;;;8.65;;
4363;SDS011;15337;48.202;12.770;2022-08-04T05:36:56;12.00;;;9.20;;
4363;SDS011;15337;48.202;12.770;2022-08-04T05:39:25;9.35;;;8.75;;
4363;SDS011;15337;48.202;12.770;2022-08-04T05:41:54;10.65;;;9.52;;
4363;SDS011;15337;48.202;12.770;2022-08-04T05:44:24;8.82;;;8.32;;
4363;SDS011;15337;48.202;12.770;2022-08-04T05:46:54;8.30;;;7.78;;
4363;SDS011;15337;48.202;12.770;2022-08-04T05:49:24;8.48;;;7.80;;
4363;SDS011;15337;48.202;12.770;2022-08-04T05:51:52;7.85;;;7.45;;
4363;SDS011;15337;48.202;12.770;2022-08-04T05:54:22;8.73;;;8.02;;
4363;SDS011;15337;48.202;12.770;2022-08-04T05:56:51;9.13;;;8.30;;
4363;SDS011;15337;48.202;12.770;2022-08-04T05:59:20;8.07;;;7.57;;
4363;SDS011;15337;48.202;12.770;2022-08-04T06:01:49;8.07;;;7.30;;
4363;SDS011;15337;48.202;12.770;2022-08-04T06:04:20;8.30;;;7.53;;
4363;SDS011;15337;48.202;12.770;2022-08-04T06:06:48;8.23;;;7.63;;
4363;SDS011;15337;48.202;12.770;2022-08-04T06:09:15;8.13;;;7.53;;
4363;SDS011;15337;48.202;12.770;2022-08-04T06:11:42;9.82;;;7.13;;
4363;SDS011;15337;48.202;12.770;2022-08-04T06:14:12;9.25;;;6.95;;
4363;SDS011;15337;48.202;12.770;2022-08-04T06:16:42;7.38;;;6.78;;
4363;SDS011;15337;48.202;12.770;2022-08-04T06:19:11;16.15;;;7.10;;
4363;SDS011;15337;48.202;12.770;2022-08-04T06:21:42;7.20;;;6.70;;
4363;SDS011;15337;48.202;12.770;2022-08-04T06:24:13;6.40;;;6.10;;
4363;SDS011;15337;48.202;12.770;2022-08-04T06:26:43;6.90;;;6.50;;
4363;SDS011;15337;48.202;12.770;2022-08-04T06:29:12;6.93;;;6.63;;
4363;SDS011;15337;48.202;12.770;2022-08-04T06:31:48;7.03;;;6.53;;
4363;SDS011;15337;48.202;12.770;2022-08-04T06:34:23;6.00;;;5.53;;
4363;SDS011;15337;48.202;12.770;2022-08-04T06:36:53;6.10;;;5.65;;
4363;SDS011;15337;48.202;12.770;2022-08-04T06:39:21;6.55;;;6.03;;
4363;SDS011;15337;48.202;12.770;2022-08-04T06:41:50;6.45;;;5.82;;
4363;SDS011;15337;48.202;12.770;2022-08-04T06:44:18;5.32;;;5.03;;
4363;SDS011;15337;48.202;12.770;2022-08-04T06:46:47;5.75;;;5.45;;
4363;SDS011;15337;48.202;12.770;2022-08-04T06:49:16;6.40;;;5.88;;
4363;SDS011;15337;48.202;12.770;2022-08-04T06:51:44;5.97;;;5.57;;
4363;SDS011;15337;48.202;12.770;2022-08-04T06:54:13;6.20;;;5.90;;
4363;SDS011;15337;48.202;12.770;2022-08-04T06:56:40;4.88;;;4.63;;
4363;SDS011;15337;48.202;12.770;2022-08-04T06:59:09;5.47;;;5.07;;
4363;SDS011;15337;48.202;12.770;2022-08-04T07:01:37;5.65;;;5.35;;
4363;SDS011;15337;48.202;12.770;2022-08-04T07:04:06;5.18;;;4.97;;
4363;SDS011;15337;48.202;12.770;2022-08-04T07:06:33;5.78;;;5.38;;
4363;SDS011;15337;48.202;12.770;2022-08-04T07:09:01;6.05;;;4.57;;
4363;SDS011;15337;48.202;12.770;2022-08-04T07:11:29;6.60;;;6.07;;
4363;SDS011;15337;48.202;12.770;2022-08-04T07:13:58;5.30;;;5.10;;
4363;SDS011;15337;48.202;12.770;2022-08-04T07:16:26;5.32;;;4.93;;
4363;SDS011;15337;48.202;12.770;2022-08-04T07:18:54;6.13;;;5.72;;
4363;SDS011;15337;48.202;12.770;2022-08-04T07:21:21;9.10;;;5.63;;
4363;SDS011;15337;48.202;12.770;2022-08-04T07:23:52;6.40;;;6.00;;
4363;SDS011;15337;48.202;12.770;2022-08-04T07:26:19;5.75;;;5.47;;
4363;SDS011;15337;48.202;12.770;2022-08-04T07:28:54;5.32;;;4.97;;
4363;SDS011;15337;48.202;12.770;2022-08-04T07:31:23;5.30;;;5.00;;
4363;SDS011;15337;48.202;12.770;2022-08-04T07:33:51;14.15;;;4.95;;
4363;SDS011;15337;48.202;12.770;2022-08-04T07:36:19;10.20;;;5.93;;
4363;SDS011;15337;48.202;12.770;2022-08-04T07:38:46;5.63;;;5.32;;
4363;SDS011;15337;48.202;12.770;2022-08-04T07:41:13;6.47;;;5.95;;
4363;SDS011;15337;48.202;12.770;2022-08-04T07:43:45;5.10;;;4.90;;
4363;SDS011;15337;48.202;12.770;2022-08-04T07:46:14;6.25;;;5.68;;
4363;SDS011;15337;48.202;12.770;2022-08-04T07:48:41;6.28;;;5.97;;
4363;SDS011;15337;48.202;12.770;2022-08-04T07:51:08;12.85;;;5.65;;
4363;SDS011;15337;48.202;12.770;2022-08-04T07:53:36;6.15;;;5.85;;
4363;SDS011;15337;48.202;12.770;2022-08-04T07:56:04;5.90;;;5.60;;
4363;SDS011;15337;48.202;12.770;2022-08-04T07:58:31;10.20;;;5.63;;
4363;SDS011;15337;48.202;12.770;2022-08-04T08:00:58;6.10;;;5.43;;
4363;SDS011;15337;48.202;12.770;2022-08-04T08:03:26;6.40;;;4.95;;
4363;SDS011;15337;48.202;12.770;2022-08-04T08:05:54;6.13;;;5.30;;
4363;SDS011;15337;48.202;12.770;2022-08-04T08:08:21;5.85;;;5.65;;
4363;SDS011;15337;48.202;12.770;2022-08-04T08:10:48;4.78;;;4.47;;
4363;SDS011;15337;48.202;12.770;2022-08-04T08:13:15;5.95;;;4.55;;
4363;SDS011;15337;48.202;12.770;2022-08-04T08:15:43;11.43;;;5.70;;
4363;SDS011;15337;48.202;12.770;2022-08-04T08:18:11;6.28;;;5.22;;
4363;SDS011;15337;48.202;12.770;2022-08-04T08:20:42;8.43;;;4.95;;
4363;SDS011;15337;48.202;12.770;2022-08-04T08:23:10;5.35;;;5.03;;
4363;SDS011;15337;48.202;12.770;2022-08-04T08:25:38;4.72;;;4.50;;
4363;SDS011;15337;48.202;12.770;2022-08-04T08:28:05;6.57;;;6.15;;
4363;SDS011;15337;48.202;12.770;2022-08-04T08:30:32;6.38;;;4.93;;
4363;SDS011;15337;48.202;12.770;2022-08-04T08:33:00;5.40;;;5.20;;
4363;SDS011;15337;48.202;12.770;2022-08-04T08:35:34;5.00;;;4.70;;
4363;SDS011;15337;48.202;12.770;2022-08-04T08:38:14;5.13;;;4.72;;
4363;SDS011;15337;48.202;12.770;2022-08-04T08:40:45;5.93;;;5.63;;
4363;SDS011;15337;48.202;12.770;2022-08-04T08:46:19;7.70;;;5.53;;
4363;SDS011;15337;48.202;12.770;2022-08-04T08:49:36;5.50;;;5.30;;
4363;SDS011;15337;48.202;12.770;2022-08-04T08:52:40;4.65;;;4.40;;
4363;SDS011;15337;48.202;12.770;2022-08-04T08:55:25;4.65;;;4.25;;
4363;SDS011;15337;48.202;12.770;2022-08-04T08:58:08;5.03;;;4.72;;
4363;SDS011;15337;48.202;12.770;2022-08-04T09:00:50;6.13;;;4.00;;
4363;SDS011;15337;48.202;12.770;2022-08-04T09:06:17;5.05;;;3.80;;
4363;SDS011;15337;48.202;12.770;2022-08-04T09:08:59;5.30;;;3.92;;
4363;SDS011;15337;48.202;12.770;2022-08-04T09:11:38;4.25;;;4.05;;
4363;SDS011;15337;48.202;12.770;2022-08-04T09:14:15;5.68;;;4.15;;
4363;SDS011;15337;48.202;12.770;2022-08-04T09:16:48;4.45;;;4.25;;
4363;SDS011;15337;48.202;12.770;2022-08-04T09:19:22;4.80;;;4.55;;
4363;SDS011;15337;48.202;12.770;2022-08-04T09:21:58;4.20;;;4.00;;
4363;SDS011;15337;48.202;12.770;2022-08-04T09:24:31;4.30;;;4.05;;
4363;SDS011;15337;48.202;12.770;2022-08-04T09:27:12;6.47;;;5.03;;
4363;SDS011;15337;48.202;12.770;2022-08-04T09:29:42;4.15;;;3.95;;
4363;SDS011;15337;48.202;12.770;2022-08-04T09:32:19;3.90;;;3.70;;
4363;SDS011;15337;48.202;12.770;2022-08-04T09:34:55;4.22;;;4.03;;
4363;SDS011;15337;48.202;12.770;2022-08-04T09:37:30;3.72;;;3.53;;
4363;SDS011;15337;48.202;12.770;2022-08-04T09:40:05;3.47;;;3.38;;
4363;SDS011;15337;48.202;12.770;2022-08-04T09:42:49;4.07;;;3.78;;
4363;SDS011;15337;48.202;12.770;2022-08-04T09:45:28;4.60;;;4.18;;
4363;SDS011;15337;48.202;12.770;2022-08-04T09:48:04;3.45;;;3.35;;
4363;SDS011;15337;48.202;12.770;2022-08-04T09:50:33;3.78;;;3.58;;
4363;SDS011;15337;48.202;12.770;2022-08-04T09:53:17;4.28;;;3.40;;
4363;SDS011;15337;48.202;12.770;2022-08-04T09:55:59;4.07;;;3.50;;
4363;SDS011;15337;48.202;12.770;2022-08-04T09:58:38;4.18;;;3.97;;
4363;SDS011;15337;48.202;12.770;2022-08-04T10:01:12;4.60;;;4.07;;
4363;SDS011;15337;48.202;12.770;2022-08-04T10:03:47;3.30;;;3.10;;
4363;SDS011;15337;48.202;12.770;2022-08-04T10:06:22;4.15;;;3.95;;
4363;SDS011;15337;48.202;12.770;2022-08-04T10:09:11;5.97;;;3.83;;
4363;SDS011;15337;48.202;12.770;2022-08-04T10:11:52;3.65;;;3.45;;
4363;SDS011;15337;48.202;12.770;2022-08-04T10:14:36;3.40;;;3.20;;
4363;SDS011;15337;48.202;12.770;2022-08-04T10:17:10;3.33;;;3.13;;
4363;SDS011;15337;48.202;12.770;2022-08-04T10:19:49;3.70;;;3.50;;
4363;SDS011;15337;48.202;12.770;2022-08-04T10:22:24;4.30;;;2.72;;
4363;SDS011;15337;48.202;12.770;2022-08-04T10:24:58;3.03;;;2.80;;
4363;SDS011;15337;48.202;12.770;2022-08-04T10:27:35;3.30;;;3.20;;
4363;SDS011;15337;48.202;12.770;2022-08-04T10:30:07;4.38;;;3.40;;
4363;SDS011;15337;48.202;12.770;2022-08-04T10:32:41;10.07;;;3.83;;
4363;SDS011;15337;48.202;12.770;2022-08-04T10:35:15;3.33;;;3.22;;
4363;SDS011;15337;48.202;12.770;2022-08-04T10:37:47;7.47;;;7.18;;
4363;SDS011;15337;48.202;12.770;2022-08-04T10:40:19;6.47;;;5.40;;
4363;SDS011;15337;48.202;12.770;2022-08-04T10:43:04;9.07;;;3.30;;
4363;SDS011;15337;48.202;12.770;2022-08-04T10:45:37;3.42;;;3.05;;
4363;SDS011;15337;48.202;12.770;2022-08-04T10:48:10;3.88;;;3.58;;
4363;SDS011;15337;48.202;12.770;2022-08-04T10:50:48;3.50;;;3.30;;
4363;SDS011;15337;48.202;12.770;2022-08-04T10:53:24;3.53;;;3.20;;
4363;SDS011;15337;48.202;12.770;2022-08-04T10:55:56;3.80;;;3.33;;
4363;SDS011;15337;48.202;12.770;2022-08-04T10:58:32;3.30;;;3.10;;
4363;SDS011;15337;48.202;12.770;2022-08-04T11:01:04;6.95;;;3.42;;
4363;SDS011;15337;48.202;12.770;2022-08-04T11:03:39;3.85;;;3.65;;
4363;SDS011;15337;48.202;12.770;2022-08-04T11:06:13;4.70;;;3.00;;
4363;SDS011;15337;48.202;12.770;2022-08-04T11:08:43;3.28;;;3.17;;
4363;SDS011;15337;48.202;12.770;2022-08-04T11:11:18;4.00;;;3.35;;
4363;SDS011;15337;48.202;12.770;2022-08-04T11:13:57;3.70;;;3.50;;
4363;SDS011;15337;48.202;12.770;2022-08-04T11:16:28;3.53;;;3.22;;
4363;SDS011;15337;48.202;12.770;2022-08-04T11:19:05;7.90;;;2.85;;
4363;SDS011;15337;48.202;12.770;2022-08-04T11:21:38;5.22;;;3.33;;
4363;SDS011;15337;48.202;12.770;2022-08-04T11:24:11;3.58;;;3.28;;
4363;SDS011;15337;48.202;12.770;2022-08-04T11:26:44;3.92;;;3.72;;
4363;SDS011;15337;48.202;12.770;2022-08-04T11:29:19;7.43;;;3.42;;
4363;SDS011;15337;48.202;12.770;2022-08-04T11:31:50;3.53;;;3.38;;
4363;SDS011;15337;48.202;12.770;2022-08-04T11:34:24;3.17;;;3.08;;
4363;SDS011;15337;48.202;12.770;2022-08-04T11:36:53;3.25;;;3.00;;
4363;SDS011;15337;48.202;12.770;2022-08-04T11:39:27;4.15;;;3.78;;
4363;SDS011;15337;48.202;12.770;2022-08-04T11:41:56;3.58;;;3.38;;
4363;SDS011;15337;48.202;12.770;2022-08-04T11:44:30;3.13;;;2.90;;
4363;SDS011;15337;48.202;12.770;2022-08-04T11:47:03;4.07;;;3.17;;
4363;SDS011;15337;48.202;12.770;2022-08-04T11:49:38;6.18;;;3.63;;
4363;SDS011;15337;48.202;12.770;2022-08-04T11:52:09;3.35;;;3.15;;
4363;SDS011;15337;48.202;12.770;2022-08-04T11:54:39;5.97;;;3.00;;
4363;SDS011;15337;48.202;12.770;2022-08-04T11:57:08;3.45;;;3.25;;
4363;SDS011;15337;48.202;12.770;2022-08-04T11:59:37;3.97;;;3.28;;
4363;SDS011;15337;48.202;12.770;2022-08-04T12:02:21;3.90;;;3.03;;
4363;SDS011;15337;48.202;12.770;2022-08-04T12:04:59;3.65;;;3.38;;
4363;SDS011;15337;48.202;12.770;2022-08-04T12:07:35;3.35;;;3.22;;
4363;SDS011;15337;48.202;12.770;2022-08-04T12:10:13;4.25;;;3.00;;
4363;SDS011;15337;48.202;12.770;2022-08-04T12:12:51;3.25;;;3.05;;
4363;SDS011;15337;48.202;12.770;2022-08-04T12:15:26;6.40;;;3.28;;
4363;SDS011;15337;48.202;12.770;2022-08-04T12:17:58;3.80;;;3.60;;
4363;SDS011;15337;48.202;12.770;2022-08-04T12:20:38;3.90;;;3.70;;
4363;SDS011;15337;48.202;12.770;2022-08-04T12:23:14;5.20;;;3.50;;
4363;SDS011;15337;48.202;12.770;2022-08-04T12:25:45;3.92;;;3.72;;
4363;SDS011;15337;48.202;12.770;2022-08-04T12:28:15;3.83;;;3.55;;
4363;SDS011;15337;48.202;12.770;2022-08-04T12:30:59;3.40;;;3.20;;
4363;SDS011;15337;48.202;12.770;2022-08-04T12:33:31;8.68;;;3.33;;
4363;SDS011;15337;48.202;12.770;2022-08-04T12:36:06;4.90;;;3.15;;
4363;SDS011;15337;48.202;12.770;2022-08-04T12:38:42;3.58;;;3.28;;
4363;SDS011;15337;48.202;12.770;2022-08-04T12:41:14;3.97;;;3.67;;
4363;SDS011;15337;48.202;12.770;2022-08-04T12:43:46;2.72;;;2.63;;
4363;SDS011;15337;48.202;12.770;2022-08-04T12:46:19;3.50;;;3.30;;
4363;SDS011;15337;48.202;12.770;2022-08-04T12:48:48;5.43;;;2.97;;
4363;SDS011;15337;48.202;12.770;2022-08-04T12:51:16;3.65;;;3.05;;
4363;SDS011;15337;48.202;12.770;2022-08-04T12:53:44;7.93;;;3.63;;
4363;SDS011;15337;48.202;12.770;2022-08-04T12:56:12;4.47;;;4.07;;
4363;SDS011;15337;48.202;12.770;2022-08-04T12:58:41;3.63;;;3.53;;
4363;SDS011;15337;48.202;12.770;2022-08-04T13:01:11;2.63;;;2.40;;
4363;SDS011;15337;48.202;12.770;2022-08-04T13:03:46;3.63;;;2.30;;
4363;SDS011;15337;48.202;12.770;2022-08-04T13:06:22;2.58;;;2.47;;
4363;SDS011;15337;48.202;12.770;2022-08-04T13:08:50;2.78;;;2.33;;
4363;SDS011;15337;48.202;12.770;2022-08-04T13:11:18;4.07;;;2.35;;
4363;SDS011;15337;48.202;12.770;2022-08-04T13:13:46;1.98;;;1.88;;
4363;SDS011;15337;48.202;12.770;2022-08-04T13:16:21;2.38;;;2.22;;
4363;SDS011;15337;48.202;12.770;2022-08-04T13:18:56;4.28;;;2.15;;
4363;SDS011;15337;48.202;12.770;2022-08-04T13:21:25;3.15;;;2.42;;
4363;SDS011;15337;48.202;12.770;2022-08-04T13:23:55;2.38;;;2.17;;
4363;SDS011;15337;48.202;12.770;2022-08-04T13:26:26;2.15;;;2.05;;
4363;SDS011;15337;48.202;12.770;2022-08-04T13:28:57;2.60;;;2.50;;
4363;SDS011;15337;48.202;12.770;2022-08-04T13:31:27;2.28;;;2.17;;
4363;SDS011;15337;48.202;12.770;2022-08-04T13:34:02;2.20;;;2.10;;
4363;SDS011;15337;48.202;12.770;2022-08-04T13:36:31;2.25;;;2.15;;
4363;SDS011;15337;48.202;12.770;2022-08-04T13:39:01;5.03;;;2.38;;
4363;SDS011;15337;48.202;12.770;2022-08-04T13:41:31;2.78;;;2.58;;
4363;SDS011;15337;48.202;12.770;2022-08-04T13:44:01;2.30;;;2.10;;
4363;SDS011;15337;48.202;12.770;2022-08-04T13:46:35;2.35;;;2.25;;
4363;SDS011;15337;48.202;12.770;2022-08-04T13:49:08;2.20;;;2.10;;
4363;SDS011;15337;48.202;12.770;2022-08-04T13:51:36;2.33;;;2.13;;
4363;SDS011;15337;48.202;12.770;2022-08-04T13:54:04;2.65;;;1.70;;
4363;SDS011;15337;48.202;12.770;2022-08-04T13:56:33;2.05;;;1.95;;
4363;SDS011;15337;48.202;12.770;2022-08-04T13:59:05;2.28;;;2.08;;
4363;SDS011;15337;48.202;12.770;2022-08-04T14:01:37;3.90;;;2.60;;
4363;SDS011;15337;48.202;12.770;2022-08-04T14:04:10;3.72;;;2.30;;
4363;SDS011;15337;48.202;12.770;2022-08-04T14:06:43;3.30;;;1.88;;
4363;SDS011;15337;48.202;12.770;2022-08-04T14:09:15;2.53;;;2.42;;
4363;SDS011;15337;48.202;12.770;2022-08-04T14:11:45;2.17;;;2.08;;
4363;SDS011;15337;48.202;12.770;2022-08-04T14:14:14;1.92;;;1.83;;
4363;SDS011;15337;48.202;12.770;2022-08-04T14:16:59;2.53;;;2.33;;
4363;SDS011;15337;48.202;12.770;2022-08-04T14:19:36;2.40;;;2.30;;
4363;SDS011;15337;48.202;12.770;2022-08-04T14:22:26;2.35;;;2.25;;
4363;SDS011;15337;48.202;12.770;2022-08-04T14:25:00;2.60;;;2.40;;
4363;SDS011;15337;48.202;12.770;2022-08-04T14:27:29;2.00;;;1.80;;
4363;SDS011;15337;48.202;12.770;2022-08-04T14:30:05;1.65;;;1.55;;
4363;SDS011;15337;48.202;12.770;2022-08-04T14:32:33;2.38;;;2.28;;
4363;SDS011;15337;48.202;12.770;2022-08-04T14:35:21;2.25;;;2.08;;
4363;SDS011;15337;48.202;12.770;2022-08-04T14:37:51;2.55;;;2.35;;
4363;SDS011;15337;48.202;12.770;2022-08-04T14:40:23;4.18;;;2.75;;
4363;SDS011;15337;48.202;12.770;2022-08-04T14:42:51;5.07;;;2.35;;
4363;SDS011;15337;48.202;12.770;2022-08-04T14:45:18;1.90;;;1.80;;
4363;SDS011;15337;48.202;12.770;2022-08-04T14:47:52;2.85;;;2.65;;
4363;SDS011;15337;48.202;12.770;2022-08-04T14:50:31;3.45;;;1.92;;
4363;SDS011;15337;48.202;12.770;2022-08-04T14:53:01;4.82;;;2.20;;
4363;SDS011;15337;48.202;12.770;2022-08-04T14:55:29;2.35;;;2.15;;
4363;SDS011;15337;48.202;12.770;2022-08-04T14:57:56;2.15;;;2.05;;
4363;SDS011;15337;48.202;12.770;2022-08-04T15:00:24;2.33;;;2.22;;
4363;SDS011;15337;48.202;12.770;2022-08-04T15:02:53;3.05;;;2.05;;
4363;SDS011;15337;48.202;12.770;2022-08-04T15:05:23;2.75;;;2.55;;
4363;SDS011;15337;48.202;12.770;2022-08-04T15:07:50;2.83;;;2.10;;
4363;SDS011;15337;48.202;12.770;2022-08-04T15:10:19;2.22;;;2.03;;
4363;SDS011;15337;48.202;12.770;2022-08-04T15:12:46;2.05;;;1.95;;
4363;SDS011;15337;48.202;12.770;2022-08-04T15:15:13;2.35;;;2.25;;
4363;SDS011;15337;48.202;12.770;2022-08-04T15:17:40;2.63;;;2.50;;
4363;SDS011;15337;48.202;12.770;2022-08-04T15:20:09;3.03;;;2.22;;
4363;SDS011;15337;48.202;12.770;2022-08-04T15:22:38;13.20;;;2.60;;
4363;SDS011;15337;48.202;12.770;2022-08-04T15:25:06;2.17;;;2.08;;
4363;SDS011;15337;48.202;12.770;2022-08-04T15:27:34;2.00;;;1.90;;
4363;SDS011;15337;48.202;12.770;2022-08-04T15:30:04;2.03;;;1.92;;
4363;SDS011;15337;48.202;12.770;2022-08-04T15:32:34;2.08;;;1.98;;
4363;SDS011;15337;48.202;12.770;2022-08-04T15:35:04;2.33;;;2.22;;
4363;SDS011;15337;48.202;12.770;2022-08-04T15:37:38;3.42;;;2.40;;
4363;SDS011;15337;48.202;12.770;2022-08-04T15:40:12;3.60;;;3.40;;
4363;SDS011;15337;48.202;12.770;2022-08-04T15:42:45;2.50;;;2.40;;
4363;SDS011;15337;48.202;12.770;2022-08-04T15:45:17;2.60;;;2.50;;
4363;SDS011;15337;48.202;12.770;2022-08-04T15:50:59;2.85;;;2.75;;
4363;SDS011;15337;48.202;12.770;2022-08-04T15:54:19;2.58;;;2.38;;
4363;SDS011;15337;48.202;12.770;2022-08-04T15:56:45;2.08;;;1.98;;
4363;SDS011;15337;48.202;12.770;2022-08-04T15:59:13;2.60;;;2.40;;
4363;SDS011;15337;48.202;12.770;2022-08-04T16:01:41;2.13;;;2.03;;
4363;SDS011;15337;48.202;12.770;2022-08-04T16:04:21;2.42;;;2.28;;
4363;SDS011;15337;48.202;12.770;2022-08-04T16:06:49;2.90;;;2.70;;
4363;SDS011;15337;48.202;12.770;2022-08-04T16:09:25;3.15;;;2.28;;
4363;SDS011;15337;48.202;12.770;2022-08-04T16:11:52;10.15;;;2.85;;
4363;SDS011;15337;48.202;12.770;2022-08-04T16:14:29;2.55;;;2.45;;
4363;SDS011;15337;48.202;12.770;2022-08-04T16:17:12;2.35;;;2.20;;